Terminal Aerodrome Forecast
Issued by NWS

Home | Current Version | Previous Version | Graphics & Text | Print | Product List | Glossary On
Versions: 1 2 3 4 5 6 7 8 9 10 11 12 13 14
000
FTUS43 KABR 140913 AAB
TAFPIR
TAF AMD
KPIR 140913Z 1409/1506 VRB05KT P6SM SKC
      TEMPO 1409/1411 2SM BR BKN001=

USA.gov is the U.S. government's official web portal to all federal, state and local government web resources and services.